Time;durP1;ratioP1;P1;durP2;ratioP2;P2;SDS_P1;SDS_P2;PMS_P1;PMS_P2;Temp;Humidity;BMP_temperature;BMP_pressure;BME280_temperature;BME280_humidity;BME280_pressure;Samples;Min_cycle;Max_cycle;Signal;HPM_P1;HPM_P2
2024/02/15 00:01:43;;;;;;;17.45;11.48;;;11.70;99.90;;;;;;4900193;29;20052;-79
2024/02/15 00:04:10;;;;;;;28.30;17.20;;;11.70;99.90;;;;;;4896544;29;20084;-79
2024/02/15 00:06:38;;;;;;;24.92;15.98;;;11.80;99.90;;;;;;4874833;29;20045;-79
2024/02/15 00:09:05;;;;;;;22.70;17.13;;;11.70;99.90;;;;;;4865884;29;20131;-79
2024/02/15 00:11:33;;;;;;;23.63;15.60;;;11.70;99.90;;;;;;4844859;29;20047;-79
2024/02/15 00:14:00;;;;;;;25.05;12.70;;;11.70;99.90;;;;;;4893882;29;20052;-79
2024/02/15 00:16:27;;;;;;;23.42;15.40;;;11.70;99.90;;;;;;4896555;29;20045;-79
2024/02/15 00:18:55;;;;;;;22.80;13.20;;;11.70;99.90;;;;;;4880938;29;20047;-79
2024/02/15 00:21:23;;;;;;;24.33;15.05;;;11.70;99.90;;;;;;4881461;29;20066;-79
2024/02/15 00:23:50;;;;;;;19.42;10.02;;;11.70;99.90;;;;;;4874849;29;20048;-79
2024/02/15 00:26:17;;;;;;;30.55;21.65;;;11.70;99.90;;;;;;4899187;29;20082;-79
2024/02/15 00:28:45;;;;;;;17.30;10.10;;;11.70;99.90;;;;;;4864317;29;20044;-79
2024/02/15 00:31:12;;;;;;;23.95;14.48;;;11.70;99.90;;;;;;4868491;29;20418;-78
2024/02/15 00:33:40;;;;;;;28.20;18.75;;;11.70;99.90;;;;;;4882529;29;20088;-79
2024/02/15 00:36:08;;;;;;;24.63;10.88;;;11.70;99.90;;;;;;4869462;29;20052;-79
2024/02/15 00:38:35;;;;;;;20.02;13.82;;;11.70;99.90;;;;;;4865955;29;20059;-79
2024/02/15 00:41:02;;;;;;;28.42;19.27;;;11.70;99.90;;;;;;4864070;29;20083;-79
2024/02/15 00:43:34;;;;;;;20.80;11.23;;;11.70;99.90;;;;;;4864058;29;20049;-79
2024/02/15 00:46:01;;;;;;;25.00;17.10;;;11.70;99.90;;;;;;4879685;29;20037;-79
2024/02/15 00:48:29;;;;;;;19.67;10.27;;;11.70;99.90;;;;;;4895218;29;20049;-79
2024/02/15 00:51:03;;;;;;;21.92;12.73;;;11.70;99.90;;;;;;4840993;29;20067;-79
2024/02/15 00:53:30;;;;;;;24.63;11.90;;;11.70;99.90;;;;;;4882384;29;20060;-79
2024/02/15 00:55:57;;;;;;;17.08;11.93;;;11.70;99.90;;;;;;4863461;29;20564;-79
2024/02/15 00:58:26;;;;;;;19.98;11.65;;;11.70;99.90;;;;;;4879920;29;20052;-79
2024/02/15 01:00:54;;;;;;;19.20;10.73;;;11.70;99.90;;;;;;4878665;29;20048;-79
2024/02/15 01:03:21;;;;;;;18.30;9.13;;;11.70;99.90;;;;;;4881110;29;20496;-79
2024/02/15 01:05:48;;;;;;;13.68;7.65;;;11.70;99.90;;;;;;4871187;29;20048;-79
2024/02/15 01:08:16;;;;;;;24.73;9.75;;;11.70;99.90;;;;;;4896367;29;20051;-79
2024/02/15 01:10:43;;;;;;;15.80;8.35;;;11.70;99.90;;;;;;4856542;29;20497;-79
2024/02/15 01:13:10;;;;;;;20.23;11.63;;;11.70;99.90;;;;;;4873321;29;20045;-79
2024/02/15 01:15:39;;;;;;;15.20;8.50;;;11.70;99.90;;;;;;4859882;29;20544;-79
2024/02/15 01:18:06;;;;;;;16.15;10.93;;;11.70;99.90;;;;;;4870940;29;20049;-79
2024/02/15 01:20:36;;;;;;;17.60;11.15;;;11.70;99.90;;;;;;4895086;29;20547;-79
2024/02/15 01:23:05;;;;;;;18.25;9.98;;;11.70;99.90;;;;;;4875334;29;20411;-79
2024/02/15 01:25:32;;;;;;;15.68;8.25;;;11.70;99.90;;;;;;4879333;29;20055;-79
2024/02/15 01:28:02;;;;;;;16.08;9.50;;;11.70;99.90;;;;;;4852254;29;20081;-79
2024/02/15 01:30:29;;;;;;;13.98;9.32;;;11.70;99.90;;;;;;4881326;29;20057;-79
2024/02/15 01:32:56;;;;;;;14.82;8.00;;;11.70;99.90;;;;;;4863575;29;20093;-79
2024/02/15 01:35:24;;;;;;;13.57;7.55;;;11.70;99.90;;;;;;4865351;29;20049;-79
2024/02/15 01:37:52;;;;;;;12.80;7.70;;;11.70;99.90;;;;;;4894745;29;20128;-79
2024/02/15 01:40:19;;;;;;;13.95;7.13;;;11.70;99.90;;;;;;4863078;29;20053;-79
2024/02/15 01:42:46;;;;;;;18.08;12.02;;;11.70;99.90;;;;;;4867044;29;20045;-79
2024/02/15 01:45:13;;;;;;;13.15;8.18;;;11.70;99.90;;;;;;4878938;29;20092;-79
2024/02/15 01:47:40;;;;;;;15.65;7.80;;;11.70;99.90;;;;;;4877214;29;20539;-79
2024/02/15 01:50:09;;;;;;;15.60;11.77;;;11.70;99.90;;;;;;4869392;29;20040;-79
2024/02/15 01:52:37;;;;;;;13.07;8.68;;;11.70;99.90;;;;;;4860483;29;20121;-79
2024/02/15 01:55:08;;;;;;;17.58;7.32;;;11.70;99.90;;;;;;4903981;29;20045;-79
2024/02/15 01:57:37;;;;;;;17.83;9.23;;;11.70;99.90;;;;;;4904344;29;20095;-79
2024/02/15 02:00:08;;;;;;;12.00;8.13;;;11.70;99.90;;;;;;4866858;29;20055;-79
2024/02/15 02:02:39;;;;;;;18.75;8.30;;;11.70;99.90;;;;;;4863423;29;20080;-79
2024/02/15 02:05:07;;;;;;;18.75;10.80;;;11.70;99.90;;;;;;4886656;29;20595;-79
2024/02/15 02:07:35;;;;;;;14.15;7.78;;;11.70;99.90;;;;;;4865841;29;20045;-79
2024/02/15 02:10:03;;;;;;;16.95;7.97;;;11.70;99.90;;;;;;4894880;29;20049;-79
2024/02/15 02:12:31;;;;;;;21.17;8.80;;;11.70;99.90;;;;;;4884761;29;20044;-79
2024/02/15 02:14:58;;;;;;;16.83;8.65;;;11.70;99.90;;;;;;4878273;29;20075;-79
2024/02/15 02:17:25;;;;;;;17.00;8.77;;;11.70;99.90;;;;;;4876194;29;20048;-79
2024/02/15 02:19:53;;;;;;;15.98;9.02;;;11.70;99.90;;;;;;4867748;29;20048;-79
2024/02/15 02:22:20;;;;;;;16.17;9.02;;;11.70;99.90;;;;;;4857908;29;20045;-79
2024/02/15 02:25:06;;;;;;;15.50;7.15;;;11.70;99.90;;;;;;4866057;29;20068;-79
2024/02/15 02:27:33;;;;;;;16.60;8.70;;;11.70;99.90;;;;;;4881512;29;20108;-79
2024/02/15 02:30:14;;;;;;;12.00;8.10;;;11.60;99.90;;;;;;4883271;29;20112;-79
2024/02/15 02:32:42;;;;;;;17.15;8.38;;;11.60;99.90;;;;;;4885284;29;20164;-79
2024/02/15 02:35:12;;;;;;;17.92;13.43;;;11.60;99.90;;;;;;4897532;29;20076;-79
2024/02/15 02:37:39;;;;;;;14.18;7.18;;;11.60;99.90;;;;;;4868910;29;20677;-80
2024/02/15 02:40:08;;;;;;;15.55;8.65;;;11.60;99.90;;;;;;4897157;29;20063;-79
2024/02/15 02:42:46;;;;;;;16.92;9.45;;;11.60;99.90;;;;;;4882505;29;20049;-79
2024/02/15 02:45:13;;;;;;;15.20;9.38;;;11.70;99.90;;;;;;4865645;29;20049;-79
2024/02/15 02:47:40;;;;;;;16.85;7.32;;;11.60;99.90;;;;;;4862420;29;20049;-79
2024/02/15 02:50:08;;;;;;;14.32;6.65;;;11.70;99.90;;;;;;4882881;29;20467;-79
2024/02/15 02:52:38;;;;;;;14.27;8.27;;;11.70;99.90;;;;;;4867444;29;20483;-79
2024/02/15 02:55:09;;;;;;;18.27;7.40;;;11.70;99.90;;;;;;4864988;29;20056;-79
2024/02/15 02:57:37;;;;;;;13.48;7.22;;;11.70;99.90;;;;;;4886774;29;20057;-79
2024/02/15 03:00:12;;;;;;;13.73;7.28;;;11.70;99.90;;;;;;4867535;29;20073;-79
2024/02/15 03:02:40;;;;;;;19.58;10.32;;;11.70;99.90;;;;;;4881171;29;20064;-79
2024/02/15 03:05:08;;;;;;;12.55;6.15;;;11.70;99.90;;;;;;4865671;29;20048;-79
2024/02/15 03:07:36;;;;;;;14.95;8.60;;;11.80;99.90;;;;;;4904580;29;20100;-79
2024/02/15 03:10:07;;;;;;;12.85;6.88;;;11.80;99.90;;;;;;4879634;29;20136;-79
2024/02/15 03:12:38;;;;;;;16.05;6.65;;;11.80;99.90;;;;;;4866038;29;20531;-79
2024/02/15 03:15:11;;;;;;;13.40;6.85;;;11.80;99.90;;;;;;4886801;29;20057;-79
2024/02/15 03:17:43;;;;;;;10.95;6.57;;;11.80;99.90;;;;;;4867924;29;20072;-79
2024/02/15 03:20:20;;;;;;;15.38;7.53;;;11.80;99.90;;;;;;4891645;29;20060;-79
2024/02/15 03:22:55;;;;;;;11.80;6.18;;;11.80;99.90;;;;;;4899400;29;20428;-79
2024/02/15 03:25:25;;;;;;;12.50;7.45;;;11.80;99.90;;;;;;4894447;29;20115;-79
2024/02/15 03:27:55;;;;;;;10.60;6.95;;;11.80;99.90;;;;;;4892178;29;20475;-79
2024/02/15 03:30:25;;;;;;;12.57;6.75;;;11.80;99.90;;;;;;4880703;29;20135;-79
2024/02/15 03:32:53;;;;;;;27.40;8.18;;;11.80;99.90;;;;;;4890595;29;20064;-79
2024/02/15 03:35:24;;;;;;;16.48;7.65;;;11.80;99.90;;;;;;4880781;29;20049;-79
2024/02/15 03:37:52;;;;;;;12.63;7.32;;;11.80;99.90;;;;;;4872011;29;20056;-79
2024/02/15 03:40:20;;;;;;;11.80;6.35;;;11.80;99.90;;;;;;4880004;29;20144;-79
2024/02/15 03:42:47;;;;;;;12.77;5.55;;;11.80;99.90;;;;;;4895856;29;20147;-79
2024/02/15 03:45:15;;;;;;;21.58;9.25;;;11.80;99.90;;;;;;4887814;29;20064;-79
2024/02/15 03:47:43;;;;;;;11.32;5.90;;;11.80;99.90;;;;;;4868971;29;20076;-79
2024/02/15 03:50:11;;;;;;;11.82;7.32;;;11.80;99.90;;;;;;4860696;29;20061;-79
2024/02/15 03:52:38;;;;;;;16.92;7.78;;;11.80;99.90;;;;;;4890985;29;20190;-79
2024/02/15 03:55:07;;;;;;;12.98;7.85;;;11.80;99.90;;;;;;4883410;29;20114;-79
2024/02/15 03:57:35;;;;;;;17.75;8.48;;;11.90;99.90;;;;;;4867842;29;20408;-79
2024/02/15 04:00:04;;;;;;;16.40;8.30;;;11.90;99.90;;;;;;4884040;29;20476;-79
2024/02/15 04:02:35;;;;;;;16.75;8.93;;;11.80;99.90;;;;;;4885301;29;20052;-79
2024/02/15 04:05:04;;;;;;;10.25;6.40;;;11.90;99.90;;;;;;4870189;29;20053;-79
2024/02/15 04:07:32;;;;;;;19.75;9.10;;;11.80;99.90;;;;;;4865603;29;20066;-79
2024/02/15 04:10:00;;;;;;;16.70;9.63;;;11.90;99.90;;;;;;4890350;29;20411;-79
2024/02/15 04:12:27;;;;;;;17.42;10.75;;;11.90;99.90;;;;;;4868516;29;20101;-79
2024/02/15 04:14:59;;;;;;;17.33;8.73;;;11.80;99.90;;;;;;4896007;29;20047;-79
2024/02/15 04:17:27;;;;;;;15.57;8.57;;;11.90;99.90;;;;;;4875783;29;20052;-79
2024/02/15 04:19:57;;;;;;;14.50;8.88;;;11.90;99.90;;;;;;4868563;29;20063;-79
2024/02/15 04:22:24;;;;;;;18.20;11.48;;;11.90;99.90;;;;;;4895499;29;20055;-79
2024/02/15 04:24:51;;;;;;;12.45;9.55;;;11.90;99.90;;;;;;4878350;29;20048;-79
2024/02/15 04:27:20;;;;;;;16.15;11.32;;;11.90;99.90;;;;;;4872671;29;20055;-79
2024/02/15 04:29:50;;;;;;;12.98;8.30;;;11.90;99.90;;;;;;4867503;29;20048;-79
2024/02/15 04:32:19;;;;;;;16.67;11.07;;;11.90;99.90;;;;;;4895021;29;20051;-79
2024/02/15 04:34:46;;;;;;;18.92;10.27;;;11.90;99.90;;;;;;4863236;29;20037;-79
2024/02/15 04:37:14;;;;;;;14.32;9.85;;;12.00;99.90;;;;;;4885616;29;20115;-79
2024/02/15 04:39:41;;;;;;;16.25;9.98;;;12.00;99.90;;;;;;4866545;29;20040;-79
2024/02/15 04:42:11;;;;;;;14.68;9.45;;;12.00;99.90;;;;;;4883818;29;20088;-79
2024/02/15 04:44:39;;;;;;;22.17;11.95;;;12.00;99.90;;;;;;4882643;29;20055;-79
2024/02/15 04:47:06;;;;;;;24.58;10.68;;;12.00;99.90;;;;;;4868220;29;20059;-79
2024/02/15 04:49:34;;;;;;;17.83;11.55;;;12.00;99.90;;;;;;4864068;29;20044;-79
2024/02/15 04:52:02;;;;;;;14.10;9.50;;;12.00;99.90;;;;;;4868019;29;20053;-79
2024/02/15 04:54:29;;;;;;;14.52;9.02;;;12.00;99.90;;;;;;4869752;29;20067;-79
2024/02/15 04:56:57;;;;;;;15.40;9.00;;;12.00;99.90;;;;;;4882351;29;20041;-79
2024/02/15 04:59:26;;;;;;;24.73;13.07;;;12.00;99.90;;;;;;4878665;29;20044;-79
2024/02/15 05:01:53;;;;;;;25.33;14.63;;;12.00;99.90;;;;;;4879887;29;20063;-79
2024/02/15 05:04:21;;;;;;;21.35;12.15;;;12.00;99.90;;;;;;4874708;29;20044;-79
2024/02/15 05:06:48;;;;;;;20.33;13.05;;;12.00;99.90;;;;;;4859499;29;20060;-79
2024/02/15 05:09:18;;;;;;;20.75;14.18;;;12.00;99.90;;;;;;4872658;29;20119;-79
2024/02/15 05:11:47;;;;;;;22.63;10.35;;;12.00;99.90;;;;;;4887892;29;20041;-79
2024/02/15 05:14:23;;;;;;;20.80;11.05;;;12.00;99.90;;;;;;4871283;29;20052;-79
2024/02/15 05:16:51;;;;;;;17.23;10.50;;;12.10;99.90;;;;;;4877225;29;20068;-79
2024/02/15 05:19:18;;;;;;;16.13;9.40;;;12.10;99.90;;;;;;4870586;29;20048;-79
2024/02/15 05:21:46;;;;;;;16.25;10.57;;;12.10;99.90;;;;;;4867971;29;20413;-79
2024/02/15 05:24:15;;;;;;;21.60;10.52;;;12.10;99.90;;;;;;4894378;29;20044;-79
2024/02/15 05:26:46;;;;;;;20.95;12.70;;;12.10;99.90;;;;;;4881753;29;20052;-79
2024/02/15 05:29:14;;;;;;;16.67;10.57;;;12.10;99.90;;;;;;4885391;29;20071;-79
2024/02/15 05:31:41;;;;;;;14.65;6.97;;;12.10;99.90;;;;;;4848803;29;20105;-80
2024/02/15 05:34:11;;;;;;;24.15;14.93;;;12.00;99.90;;;;;;4899968;29;20091;-79
2024/02/15 05:36:40;;;;;;;11.77;7.03;;;12.00;99.90;;;;;;4899888;29;20072;-79
2024/02/15 05:39:08;;;;;;;23.02;12.10;;;12.00;99.90;;;;;;4881271;29;20044;-79
2024/02/15 05:41:35;;;;;;;25.05;13.52;;;12.00;99.90;;;;;;4860684;29;20089;-79
2024/02/15 05:44:06;;;;;;;22.52;12.82;;;12.00;99.90;;;;;;4882379;29;20044;-79
2024/02/15 05:46:37;;;;;;;22.00;12.63;;;12.00;99.90;;;;;;4892685;29;20043;-79
2024/02/15 05:49:05;;;;;;;19.17;13.02;;;12.00;99.90;;;;;;4878943;29;20624;-80
2024/02/15 05:51:33;;;;;;;19.10;14.00;;;12.00;99.90;;;;;;4863519;29;20396;-79
2024/02/15 05:54:01;;;;;;;27.83;15.60;;;12.00;99.90;;;;;;4872802;29;20041;-79
2024/02/15 05:56:29;;;;;;;23.45;15.00;;;12.00;99.90;;;;;;4899975;29;20131;-79
2024/02/15 05:58:57;;;;;;;16.15;9.82;;;12.00;99.90;;;;;;4904355;29;20056;-79
2024/02/15 06:01:24;;;;;;;18.85;10.57;;;12.10;99.90;;;;;;4891089;29;20071;-79
2024/02/15 06:03:54;;;;;;;20.20;12.63;;;12.00;99.90;;;;;;4882580;29;20048;-79
2024/02/15 06:06:23;;;;;;;24.80;13.93;;;12.00;99.90;;;;;;4882928;29;20131;-79
2024/02/15 06:08:51;;;;;;;19.42;11.95;;;12.10;99.90;;;;;;4881441;29;20049;-80
2024/02/15 06:11:20;;;;;;;20.65;16.10;;;12.10;99.90;;;;;;4886544;29;20049;-80
2024/02/15 06:13:48;;;;;;;25.08;13.15;;;12.10;99.90;;;;;;4885816;29;20049;-79
2024/02/15 06:16:15;;;;;;;28.83;21.25;;;12.10;99.90;;;;;;4881259;29;20116;-79
2024/02/15 06:18:42;;;;;;;17.90;11.63;;;12.10;99.90;;;;;;4895344;29;20040;-80
2024/02/15 06:21:10;;;;;;;23.50;13.05;;;12.10;99.90;;;;;;4869966;29;20056;-79
2024/02/15 06:23:37;;;;;;;22.13;14.50;;;12.10;99.90;;;;;;4878208;29;20059;-79
2024/02/15 06:26:05;;;;;;;20.05;11.98;;;12.10;99.90;;;;;;4886623;29;20044;-80
2024/02/15 06:39:55;;;;;;;18.35;12.10;;;12.10;99.90;;;;;;4878820;29;20063;-79
2024/02/15 06:42:22;;;;;;;22.98;17.67;;;12.10;99.90;;;;;;4897365;29;20051;-79
2024/02/15 06:44:50;;;;;;;14.68;10.43;;;12.20;99.90;;;;;;4864792;29;20136;-79
2024/02/15 06:47:19;;;;;;;17.27;11.15;;;12.20;99.90;;;;;;4864287;29;20052;-79
2024/02/15 06:49:46;;;;;;;19.40;12.25;;;12.10;99.90;;;;;;4864597;29;20084;-79
2024/02/15 06:52:13;;;;;;;15.23;10.38;;;12.20;99.90;;;;;;4886000;29;20044;-79
2024/02/15 06:54:41;;;;;;;21.73;17.35;;;12.20;99.90;;;;;;4883567;29;20128;-79
2024/02/15 06:57:10;;;;;;;18.48;15.43;;;12.20;99.90;;;;;;4896308;29;20887;-79
2024/02/15 06:59:39;;;;;;;15.45;11.10;;;12.10;99.90;;;;;;4874829;29;20052;-79
2024/02/15 07:02:07;;;;;;;21.17;12.32;;;12.10;99.90;;;;;;4865303;29;20480;-79
2024/02/15 07:04:36;;;;;;;22.85;16.35;;;12.10;99.90;;;;;;4896955;29;20044;-79
2024/02/15 07:07:04;;;;;;;14.15;10.07;;;12.10;99.90;;;;;;4867040;29;20048;-79
2024/02/15 07:09:32;;;;;;;19.42;12.75;;;12.20;99.90;;;;;;4869310;29;20567;-79
2024/02/15 07:11:59;;;;;;;15.05;10.57;;;12.10;99.90;;;;;;4862946;29;20052;-79
2024/02/15 07:14:28;;;;;;;20.55;12.05;;;12.20;99.90;;;;;;4887808;29;20040;-79
2024/02/15 07:16:58;;;;;;;17.90;10.25;;;12.20;99.90;;;;;;4870569;29;20424;-79
2024/02/15 07:19:27;;;;;;;22.73;18.48;;;12.20;99.90;;;;;;4882733;29;20411;-79
2024/02/15 07:21:56;;;;;;;15.05;9.93;;;12.20;99.90;;;;;;4880722;29;20108;-79
2024/02/15 07:24:26;;;;;;;;;;;12.20;99.90;;;;;;4895666;29;20108;-79
2024/02/15 07:26:57;;;;;;;19.63;8.93;;;12.20;99.90;;;;;;4882665;29;20421;-79
2024/02/15 07:29:25;;;;;;;16.52;12.52;;;12.20;99.90;;;;;;4880308;29;20059;-78
2024/02/15 07:31:53;;;;;;;16.25;11.27;;;12.20;99.90;;;;;;4868037;29;20049;-79
2024/02/15 07:34:20;;;;;;;17.00;10.32;;;12.20;99.90;;;;;;4898562;29;20104;-79
2024/02/15 07:36:48;;;;;;;14.65;6.82;;;12.20;99.90;;;;;;4896146;29;20040;-79
2024/02/15 07:39:23;;;;;;;11.75;9.15;;;12.20;99.90;;;;;;4900324;29;20052;-79
2024/02/15 07:41:51;;;;;;;19.30;10.60;;;12.30;99.90;;;;;;4899053;29;20052;-79
2024/02/15 07:44:19;;;;;;;10.68;8.80;;;12.20;99.90;;;;;;4896385;29;20048;-79
2024/02/15 07:46:47;;;;;;;12.45;8.57;;;12.30;99.90;;;;;;4880483;29;20044;-79
2024/02/15 07:49:14;;;;;;;10.55;8.52;;;12.30;99.90;;;;;;4880242;29;20804;-79
2024/02/15 07:51:41;;;;;;;13.75;9.38;;;12.30;99.90;;;;;;4882860;29;20049;-79
2024/02/15 07:54:08;;;;;;;18.65;10.05;;;12.30;99.90;;;;;;4847999;29;20139;-79
2024/02/15 07:56:36;;;;;;;14.57;9.73;;;12.30;99.90;;;;;;4894449;29;20440;-79
2024/02/15 07:59:03;;;;;;;11.82;8.75;;;12.30;99.90;;;;;;4895251;29;20499;-79
2024/02/15 08:01:31;;;;;;;7.80;5.20;;;12.30;99.90;;;;;;4898336;29;20052;-79
2024/02/15 08:03:58;;;;;;;12.63;7.60;;;12.30;99.90;;;;;;4865330;29;20048;-79
2024/02/15 08:06:27;;;;;;;13.10;8.60;;;12.30;99.90;;;;;;4888708;29;20047;-79
2024/02/15 08:08:55;;;;;;;11.35;7.97;;;12.30;99.90;;;;;;4908418;29;20430;-79
2024/02/15 08:11:23;;;;;;;9.68;6.93;;;12.30;99.90;;;;;;4867466;29;20092;-79
2024/02/15 08:13:54;;;;;;;11.68;7.72;;;12.30;99.90;;;;;;4849639;29;20055;-79
2024/02/15 08:16:22;;;;;;;16.00;9.63;;;12.30;99.90;;;;;;4896397;29;20048;-79
2024/02/15 08:18:54;;;;;;;9.63;8.02;;;12.30;99.90;;;;;;4890660;29;20052;-79
2024/02/15 08:21:41;;;;;;;12.50;9.18;;;12.30;99.90;;;;;;4881552;29;20511;-79
2024/02/15 08:24:09;;;;;;;15.20;10.80;;;12.40;99.90;;;;;;4873937;29;20057;-79
2024/02/15 08:26:39;;;;;;;12.57;7.10;;;12.30;99.90;;;;;;4878503;29;20496;-79
2024/02/15 08:29:06;;;;;;;10.65;8.38;;;12.30;99.90;;;;;;4876075;29;20056;-79
2024/02/15 08:31:33;;;;;;;14.93;11.43;;;12.30;99.90;;;;;;4908138;29;20032;-79
2024/02/15 08:34:09;;;;;;;9.90;7.50;;;12.30;99.90;;;;;;4887956;29;20495;-78
2024/02/15 08:36:39;;;;;;;13.52;9.02;;;12.40;99.90;;;;;;4883197;29;20056;-78
2024/02/15 08:39:11;;;;;;;17.27;10.23;;;12.40;99.90;;;;;;4901552;29;20533;-78
2024/02/15 08:41:40;;;;;;;13.15;10.30;;;12.40;99.90;;;;;;4900945;29;20060;-78
2024/02/15 08:44:11;;;;;;;14.02;10.60;;;12.40;99.90;;;;;;4875298;29;20424;-78
2024/02/15 08:46:39;;;;;;;15.55;10.90;;;12.40;99.90;;;;;;4888551;29;20036;-78
2024/02/15 08:49:06;;;;;;;16.63;9.23;;;12.40;99.90;;;;;;4900131;29;20041;-78
2024/02/15 08:51:33;;;;;;;11.38;7.75;;;12.40;99.90;;;;;;4900301;29;20045;-78
2024/02/15 08:54:00;;;;;;;12.60;9.57;;;12.40;99.90;;;;;;4893568;29;20099;-78
2024/02/15 08:56:28;;;;;;;12.82;9.90;;;12.40;99.90;;;;;;4910292;29;20074;-78
2024/02/15 08:58:57;;;;;;;11.77;9.20;;;12.40;99.90;;;;;;4891799;29;20048;-78
2024/02/15 09:01:26;;;;;;;9.38;8.30;;;12.40;99.90;;;;;;4903397;29;20044;-78
2024/02/15 09:03:54;;;;;;;8.13;6.55;;;12.40;99.90;;;;;;4866938;29;20416;-78
2024/02/15 09:06:22;;;;;;;13.32;8.80;;;12.30;99.90;;;;;;4877768;29;20074;-78
2024/02/15 09:08:50;;;;;;;12.85;8.85;;;12.30;99.90;;;;;;4897918;29;20047;-78
2024/02/15 09:11:17;;;;;;;13.18;8.75;;;12.30;99.90;;;;;;4874570;29;20053;-78
2024/02/15 09:13:44;;;;;;;13.00;9.45;;;12.30;99.90;;;;;;4879026;29;20059;-78
2024/02/15 09:16:11;;;;;;;14.60;9.90;;;12.30;99.90;;;;;;4887309;29;20051;-78
2024/02/15 09:18:44;;;;;;;12.38;7.80;;;12.40;99.90;;;;;;4908964;29;20572;-78
2024/02/15 09:21:12;;;;;;;12.15;8.43;;;12.40;99.90;;;;;;4877826;29;20052;-78
2024/02/15 09:23:39;;;;;;;13.02;8.57;;;12.40;99.90;;;;;;4894463;29;20864;-78
2024/02/15 09:26:09;;;;;;;11.13;8.75;;;12.40;99.90;;;;;;4878961;29;20424;-78
2024/02/15 09:28:39;;;;;;;10.82;9.73;;;12.30;99.90;;;;;;4896209;29;20059;-78
2024/02/15 09:31:07;;;;;;;9.13;7.22;;;12.30;99.90;;;;;;4881437;29;20045;-79
2024/02/15 09:33:34;;;;;;;9.18;6.50;;;12.40;99.90;;;;;;4880004;29;20049;-78
2024/02/15 09:36:01;;;;;;;10.35;6.03;;;12.40;99.90;;;;;;4865727;29;20673;-78
2024/02/15 09:38:28;;;;;;;10.73;7.78;;;12.40;99.90;;;;;;4885101;29;20037;-78
2024/02/15 09:40:56;;;;;;;10.65;9.57;;;12.40;99.90;;;;;;4910470;29;20127;-78
2024/02/15 09:43:26;;;;;;;13.27;8.40;;;12.40;99.90;;;;;;4897743;29;20057;-78
2024/02/15 09:45:53;;;;;;;10.40;8.15;;;12.40;99.90;;;;;;4884305;29;20076;-78
2024/02/15 09:48:24;;;;;;;10.65;8.52;;;12.50;99.90;;;;;;4896180;29;20495;-78
2024/02/15 09:50:53;;;;;;;9.85;6.22;;;12.50;99.90;;;;;;4895463;29;20053;-78
2024/02/15 09:53:25;;;;;;;12.27;8.93;;;12.50;99.90;;;;;;4894301;29;20069;-78
2024/02/15 09:55:54;;;;;;;9.40;6.97;;;12.50;99.90;;;;;;4866063;29;20156;-78
2024/02/15 09:58:23;;;;;;;8.75;6.82;;;12.60;99.90;;;;;;4903825;29;20515;-78
2024/02/15 10:00:50;;;;;;;9.35;6.88;;;12.50;99.90;;;;;;4917104;29;20067;-78
2024/02/15 10:03:21;;;;;;;7.53;5.53;;;12.60;99.90;;;;;;4871021;29;20135;-78
2024/02/15 10:05:49;;;;;;;7.68;6.75;;;12.60;99.90;;;;;;4896622;29;20488;-78
2024/02/15 10:08:17;;;;;;;8.25;6.68;;;12.70;99.90;;;;;;4903725;29;20527;-78
2024/02/15 10:10:44;;;;;;;9.85;7.80;;;12.70;99.90;;;;;;4886122;29;20040;-78
2024/02/15 10:13:13;;;;;;;7.75;6.00;;;12.70;99.90;;;;;;4870542;29;20048;-79
2024/02/15 10:15:40;;;;;;;7.63;6.45;;;12.70;99.90;;;;;;4926158;29;20041;-78
2024/02/15 10:18:11;;;;;;;6.97;6.38;;;12.70;99.90;;;;;;4884369;29;20063;-78
2024/02/15 10:20:40;;;;;;;7.68;5.45;;;12.70;99.90;;;;;;4903093;29;20037;-78
2024/02/15 10:23:08;;;;;;;7.45;6.70;;;12.70;99.90;;;;;;4875081;29;20139;-78
2024/02/15 10:25:41;;;;;;;6.30;5.07;;;12.70;99.90;;;;;;4885054;29;20055;-78
2024/02/15 10:28:15;;;;;;;7.13;6.43;;;12.70;99.90;;;;;;4893277;29;20077;-78
2024/02/15 10:30:44;;;;;;;5.07;4.35;;;12.70;99.90;;;;;;4881607;29;20049;-78
2024/02/15 10:33:31;;;;;;;8.55;5.63;;;12.70;99.90;;;;;;4906321;29;20123;-78
2024/02/15 10:36:13;;;;;;;7.60;5.43;;;12.70;99.90;;;;;;4917355;29;20052;-77
2024/02/15 10:38:41;;;;;;;6.15;5.22;;;12.70;99.90;;;;;;4877727;29;20084;-78
2024/02/15 10:41:10;;;;;;;5.45;4.70;;;12.80;99.90;;;;;;4894896;29;20040;-78
2024/02/15 10:43:39;;;;;;;6.63;5.57;;;12.80;99.90;;;;;;4908695;29;20423;-78
2024/02/15 10:46:10;;;;;;;6.40;5.50;;;12.80;99.90;;;;;;4925226;29;20056;-78
2024/02/15 10:48:38;;;;;;;6.50;4.90;;;12.90;99.90;;;;;;4882406;29;20059;-78
2024/02/15 10:51:10;;;;;;;5.43;4.85;;;12.90;99.90;;;;;;4884049;29;20052;-78
2024/02/15 10:53:45;;;;;;;5.68;5.03;;;12.90;99.90;;;;;;4908889;29;20040;-78
2024/02/15 10:56:19;;;;;;;6.93;5.00;;;13.00;99.90;;;;;;4892300;29;20061;-77
2024/02/15 10:59:04;;;;;;;6.35;4.35;;;13.00;99.90;;;;;;4906818;29;20044;-78
2024/02/15 11:01:33;;;;;;;5.43;4.97;;;13.00;99.90;;;;;;4892559;29;20535;-78
2024/02/15 11:04:10;;;;;;;4.82;4.07;;;13.10;99.90;;;;;;4913057;29;20097;-78
2024/02/15 11:06:42;;;;;;;5.38;4.88;;;13.00;99.90;;;;;;4864279;29;20045;-78
2024/02/15 11:09:13;;;;;;;5.38;4.93;;;13.10;99.90;;;;;;4891170;29;20040;-78
2024/02/15 11:11:41;;;;;;;4.15;3.53;;;13.10;99.90;;;;;;4888067;29;20056;-78
2024/02/15 11:14:33;;;;;;;5.32;4.82;;;13.10;99.90;;;;;;4888244;29;20115;-77
2024/02/15 11:17:09;;;;;;;4.78;4.05;;;13.20;99.90;;;;;;4875169;29;20413;-78
2024/02/15 11:19:39;;;;;;;3.65;3.35;;;13.20;99.90;;;;;;4891490;29;20514;-78
2024/02/15 11:22:11;;;;;;;3.33;2.85;;;13.20;99.90;;;;;;4870104;29;20057;-78
2024/02/15 11:24:50;;;;;;;3.42;3.13;;;13.20;99.90;;;;;;4897259;29;20052;-78
2024/02/15 11:27:28;;;;;;;5.22;4.70;;;13.20;99.90;;;;;;4886192;29;20496;-78
2024/02/15 11:30:22;;;;;;;4.45;4.05;;;13.10;99.90;;;;;;4889665;29;20048;-78
2024/02/15 11:32:51;;;;;;;3.38;3.15;;;13.10;99.90;;;;;;4904534;29;20048;-78
2024/02/15 11:35:20;;;;;;;3.95;3.55;;;13.20;99.90;;;;;;4894661;29;20055;-78
2024/02/15 11:40:23;;;;;;;3.13;2.83;;;13.20;99.90;;;;;;4908487;29;20126;-78
2024/02/15 11:42:57;;;;;;;3.78;3.47;;;13.20;99.90;;;;;;4892295;29;20144;-79
2024/02/15 11:45:25;;;;;;;3.72;3.42;;;13.30;99.90;;;;;;4896374;29;20060;-79
2024/02/15 11:47:55;;;;;;;3.08;2.80;;;13.30;99.90;;;;;;4904511;29;20051;-78
2024/02/15 11:50:23;;;;;;;3.63;2.47;;;13.20;99.90;;;;;;4895542;29;20519;-78
2024/02/15 11:52:51;;;;;;;2.10;1.90;;;13.20;99.90;;;;;;4873665;29;20056;-78
2024/02/15 11:55:20;;;;;;;2.13;2.03;;;13.30;99.90;;;;;;4912249;29;20051;-78
2024/02/15 11:58:02;;;;;;;1.92;1.75;;;13.30;99.90;;;;;;4890342;29;20048;-78
2024/02/15 12:20:10;;;;;;;1.80;1.70;;;13.20;99.90;;;;;;4880253;29;20053;-78
2024/02/15 12:22:46;;;;;;;2.45;2.25;;;13.20;99.90;;;;;;4889353;29;20049;-78
2024/02/15 12:25:16;;;;;;;2.38;1.95;;;13.20;99.90;;;;;;4897153;29;20072;-77
2024/02/15 12:27:44;;;;;;;2.63;2.42;;;13.20;99.90;;;;;;4917178;29;20072;-78
2024/02/15 12:30:20;;;;;;;2.20;2.00;;;13.20;99.90;;;;;;4898380;29;20033;-79
2024/02/15 12:32:48;;;;;;;2.58;2.47;;;13.20;99.90;;;;;;4905259;29;20057;-78
2024/02/15 12:35:22;;;;;;;2.05;1.92;;;13.20;99.90;;;;;;4880626;29;20071;-79
2024/02/15 12:38:04;;;;;;;2.13;2.03;;;13.20;99.90;;;;;;4882442;29;20083;-78
2024/02/15 12:40:34;;;;;;;2.42;1.92;;;13.20;99.90;;;;;;4909336;29;20104;-79
2024/02/15 12:43:05;;;;;;;1.98;1.80;;;13.20;99.90;;;;;;4892788;29;20502;-79
2024/02/15 12:45:36;;;;;;;;;;;13.10;99.90;;;;;;4891587;29;20052;-78
2024/02/15 12:48:05;;;;;;;2.80;2.60;;;13.10;99.90;;;;;;4922084;29;19923;-78
2024/02/15 12:50:34;;;;;;;2.15;2.00;;;13.10;99.90;;;;;;4879191;29;20539;-78
2024/02/15 12:53:02;;;;;;;2.22;2.03;;;13.10;99.90;;;;;;4907764;29;20045;-78
2024/02/15 12:55:36;;;;;;;2.90;2.70;;;13.00;99.90;;;;;;4883534;29;20383;-78
2024/02/15 12:58:08;;;;;;;2.72;2.28;;;13.00;99.90;;;;;;4892801;29;20101;-78
2024/02/15 13:00:39;;;;;;;2.97;2.63;;;13.00;99.90;;;;;;4883084;29;20623;-78
2024/02/15 13:03:09;;;;;;;3.38;3.13;;;13.00;99.90;;;;;;4889680;29;20048;-78
2024/02/15 13:05:38;;;;;;;;;;;13.00;99.90;;;;;;4886372;29;20043;-78
2024/02/15 13:08:10;;;;;;;2.60;2.40;;;13.00;99.90;;;;;;4897222;29;20470;-78
2024/02/15 13:10:38;;;;;;;2.70;2.50;;;13.00;99.90;;;;;;4884060;29;20104;-79
2024/02/15 13:13:09;;;;;;;2.67;2.47;;;12.90;99.90;;;;;;4879667;29;20139;-79
2024/02/15 13:15:38;;;;;;;4.65;3.55;;;12.90;99.90;;;;;;4880125;29;20045;-79
2024/02/15 13:18:09;;;;;;;2.05;1.92;;;12.90;99.90;;;;;;4891619;29;20066;-78
2024/02/15 13:20:37;;;;;;;2.97;2.78;;;12.90;99.90;;;;;;4880138;29;20275;-79
2024/02/15 13:23:09;;;;;;;3.42;3.13;;;12.90;99.90;;;;;;4878657;29;20045;-79